Time;durP1;ratioP1;P1;durP2;ratioP2;P2;SDS_P1;SDS_P2;PMS_P1;PMS_P2;Temp;Humidity;BMP_temperature;BMP_pressure;BME280_temperature;BME280_humidity;BME280_pressure;Samples;Min_cycle;Max_cycle;Signal;HPM_P1;HPM_P2
2022/06/22 00:00:14;;;;;;;2.72;2.00;;;;;;;14.32;60.42;98814.67;1740482;80;21510;-70
2022/06/22 00:02:41;;;;;;;3.80;1.90;;;;;;;14.29;60.49;98815.87;1735688;82;21018;-71
2022/06/22 00:05:18;;;;;;;4.45;1.85;;;;;;;14.25;60.63;98811.91;1735570;82;21924;-70
2022/06/22 00:07:54;;;;;;;4.87;1.62;;;;;;;14.22;60.88;98802.17;1735883;82;20949;-70
2022/06/22 00:10:31;;;;;;;5.30;2.00;;;;;;;14.15;60.99;98805.23;1735594;82;20992;-71
2022/06/22 00:13:00;;;;;;;4.62;1.90;;;;;;;14.07;61.39;98798.17;1778376;79;20980;-70
2022/06/22 00:15:42;;;;;;;5.30;2.12;;;;;;;13.99;61.69;98794.27;1777494;80;21005;-70
2022/06/22 00:18:35;;;;;;;3.95;1.77;;;;;;;13.94;61.96;98794.01;1777615;80;21812;-70
2022/06/22 00:21:06;;;;;;;4.40;1.85;;;;;;;13.91;62.34;98791.73;1772493;80;20965;-70
2022/06/22 00:23:39;;;;;;;4.33;2.10;;;;;;;13.84;62.93;98792.95;1777644;80;21347;-70
2022/06/22 00:26:26;;;;;;;4.47;1.90;;;;;;;13.77;63.32;98797.83;1777672;80;21004;-70
2022/06/22 00:29:10;;;;;;;3.10;2.00;;;;;;;13.73;63.79;98794.72;1777066;80;21439;-71
2022/06/22 00:31:45;;;;;;;;;;;;;;;13.66;64.05;98783.99;1780293;80;21801;-71
2022/06/22 00:34:20;;;;;;;3.47;2.20;;;;;;;13.63;64.19;98784.36;1777764;80;20168;-70
2022/06/22 00:37:17;;;;;;;7.72;2.33;;;;;;;13.57;64.57;98779.77;1777191;80;21369;-70
2022/06/22 00:39:47;;;;;;;5.30;1.98;;;;;;;13.52;64.84;98776.84;1777526;80;21005;-70
2022/06/22 00:42:50;;;;;;;2.55;2.02;;;;;;;13.45;64.94;98771.92;1777441;80;20948;-70
2022/06/22 00:45:28;;;;;;;5.90;2.10;;;;;;;13.41;65.40;98767.96;1778028;79;21561;-70
2022/06/22 00:48:02;;;;;;;5.00;2.10;;;;;;;13.33;65.92;98764.91;1782209;80;21412;-70
2022/06/22 00:50:43;;;;;;;3.15;2.08;;;;;;;13.27;66.12;98763.45;1780326;80;20982;-70
2022/06/22 00:53:24;;;;;;;9.15;2.30;;;;;;;13.21;66.27;98760.17;1779946;80;21032;-70
2022/06/22 00:55:59;;;;;;;4.75;2.22;;;;;;;13.18;66.36;98756.03;1780978;80;21106;-70
2022/06/22 00:58:31;;;;;;;7.15;2.05;;;;;;;13.12;66.52;98749.63;1780327;79;21466;-70
2022/06/22 01:01:14;;;;;;;6.90;2.33;;;;;;;13.07;66.67;98753.30;1778771;80;20994;-70
2022/06/22 01:04:08;;;;;;;4.15;2.37;;;;;;;13.01;66.77;98752.67;1780629;78;20949;-71
2022/06/22 01:06:46;;;;;;;6.00;2.50;;;;;;;12.95;67.16;98744.63;1761794;80;21071;-70
2022/06/22 01:09:28;;;;;;;2.85;2.40;;;;;;;12.89;67.53;98742.17;1758015;80;20981;-70
2022/06/22 01:12:18;;;;;;;2.62;2.20;;;;;;;12.82;67.87;98742.54;1781104;80;21845;-70
2022/06/22 01:14:55;;;;;;;3.50;2.27;;;;;;;12.80;68.02;98760.44;1759669;80;20979;-70
2022/06/22 01:18:10;;;;;;;4.58;2.50;;;;;;;12.75;67.90;98754.36;1781134;80;20936;-70
2022/06/22 01:21:00;;;;;;;5.78;2.47;;;;;;;12.74;67.86;98743.91;1776411;78;21529;-71
2022/06/22 01:23:54;;;;;;;10.55;2.67;;;;;;;12.72;67.79;98741.94;1774739;80;21542;-70
2022/06/22 01:27:06;;;;;;;5.42;2.60;;;;;;;12.72;67.83;98738.80;1774622;80;21831;-70
2022/06/22 01:29:33;;;;;;;5.20;2.70;;;;;;;12.69;67.99;98733.03;1775540;80;20981;-70
2022/06/22 01:32:07;;;;;;;7.22;2.47;;;;;;;12.65;67.92;98732.57;1780715;80;21035;-70
2022/06/22 01:34:40;;;;;;;7.33;2.40;;;;;;;12.64;67.87;98724.27;1779893;80;21495;-70
2022/06/22 01:37:13;;;;;;;5.78;2.60;;;;;;;12.61;67.79;98717.51;1780766;78;21027;-70
2022/06/22 01:39:39;;;;;;;4.20;2.80;;;;;;;12.59;67.65;98716.86;1754762;81;22544;-70
2022/06/22 01:42:24;;;;;;;3.92;2.40;;;;;;;12.56;67.51;98710.60;1770809;81;21373;-70
2022/06/22 01:45:08;;;;;;;2.60;2.35;;;;;;;12.54;67.46;98712.58;1771093;81;21038;-70
2022/06/22 01:47:51;;;;;;;4.78;2.47;;;;;;;12.55;67.38;98710.28;1757984;80;21475;-70
2022/06/22 01:50:39;;;;;;;4.35;2.70;;;;;;;12.54;67.23;98700.66;1757816;80;20990;-70
2022/06/22 01:53:44;;;;;;;3.75;2.77;;;;;;;12.54;67.12;98693.21;1715983;80;22268;-70
2022/06/22 01:56:34;;;;;;;3.92;2.60;;;;;;;12.54;67.01;98687.92;1788835;80;21550;-70
2022/06/22 01:59:25;;;;;;;5.12;2.72;;;;;;;12.56;66.89;98691.24;1788890;80;20982;-70
2022/06/22 02:02:19;;;;;;;3.92;2.45;;;;;;;12.55;66.79;98685.62;1789306;80;21010;-70
2022/06/22 02:05:05;;;;;;;3.20;2.60;;;;;;;12.53;66.77;98679.16;1789173;80;20946;-70
2022/06/22 02:07:46;;;;;;;5.10;2.70;;;;;;;12.56;66.78;98684.12;1789427;79;22543;-70
2022/06/22 02:10:41;;;;;;;6.58;2.92;;;;;;;12.56;66.73;98682.80;1790212;78;20945;-70
2022/06/22 02:13:32;;;;;;;6.83;3.10;;;;;;;12.56;66.74;98684.62;1789468;80;20997;-70
2022/06/22 02:16:12;;;;;;;5.17;2.65;;;;;;;12.55;66.86;98685.13;1788908;80;20996;-70
2022/06/22 02:18:50;;;;;;;4.03;2.62;;;;;;;12.54;66.91;98690.06;1789133;80;21498;-70
2022/06/22 02:21:33;;;;;;;5.12;2.70;;;;;;;12.52;66.95;98678.83;1782360;80;21913;-70
2022/06/22 02:24:11;;;;;;;5.08;2.60;;;;;;;12.54;67.03;98675.50;1789136;80;20988;-70
2022/06/22 02:26:43;;;;;;;3.33;2.40;;;;;;;12.52;67.00;98670.06;1788770;80;21478;-71
2022/06/22 02:29:10;;;;;;;5.58;2.50;;;;;;;12.50;67.06;98670.24;1789195;80;20988;-71
2022/06/22 02:31:36;;;;;;;4.83;2.55;;;;;;;12.47;67.13;98673.25;1726048;81;21011;-70
2022/06/22 02:34:04;;;;;;;8.10;2.77;;;;;;;12.45;67.17;98665.13;1757848;81;21003;-70
2022/06/22 02:36:35;;;;;;;3.98;2.52;;;;;;;12.42;67.25;98667.64;1757897;80;20948;-70
2022/06/22 02:39:03;;;;;;;3.77;2.50;;;;;;;12.41;67.33;98668.64;1757745;81;20994;-70
2022/06/22 02:44:30;;;;;;;4.67;2.47;;;;;;;12.37;67.62;98659.41;1766190;78;21442;-70
2022/06/22 02:47:25;;;;;;;5.28;2.42;;;;;;;12.42;67.77;98664.99;1778473;80;21773;-70
2022/06/22 02:50:07;;;;;;;2.62;2.37;;;;;;;12.46;67.73;98670.78;1774639;80;20918;-70
2022/06/22 02:52:50;;;;;;;3.95;2.20;;;;;;;12.51;67.78;98678.51;1774868;80;21451;-70
2022/06/22 02:55:20;;;;;;;4.33;2.27;;;;;;;12.57;67.63;98684.44;1775206;80;20957;-70
2022/06/22 02:57:53;;;;;;;3.75;2.40;;;;;;;12.61;67.69;98683.58;1775961;80;21297;-70
2022/06/22 03:00:33;;;;;;;9.20;2.60;;;;;;;12.65;67.51;98682.24;1775643;80;22626;-70
2022/06/22 03:03:11;;;;;;;6.03;2.67;;;;;;;12.68;67.58;98682.37;1774122;80;21028;-70
2022/06/22 03:05:38;;;;;;;3.15;2.27;;;;;;;12.73;67.59;98684.81;1774059;80;21032;-70
2022/06/22 03:08:05;;;;;;;5.00;2.25;;;;;;;12.76;67.66;98676.53;1774507;80;20961;-70
2022/06/22 03:10:49;;;;;;;3.42;2.15;;;;;;;12.82;67.76;98677.13;1774560;80;20939;-71
2022/06/22 03:13:20;;;;;;;4.87;2.08;;;;;;;12.86;67.56;98677.11;1774973;80;21806;-71
2022/06/22 03:15:47;;;;;;;3.58;2.10;;;;;;;12.90;67.43;98675.73;1774610;80;21092;-71
2022/06/22 03:18:23;;;;;;;2.47;1.90;;;;;;;12.98;67.33;98671.38;1775668;78;20934;-71
2022/06/22 03:20:52;;;;;;;5.75;1.90;;;;;;;13.07;67.25;98669.81;1774613;80;20998;-71
2022/06/22 03:23:39;;;;;;;2.95;2.10;;;;;;;13.16;67.18;98660.78;1774837;80;21009;-71
2022/06/22 03:26:17;;;;;;;4.12;2.08;;;;;;;13.23;66.49;98646.84;1774909;80;21812;-70
2022/06/22 03:28:48;;;;;;;5.05;1.80;;;;;;;13.30;66.19;98643.77;1774504;80;20945;-71
2022/06/22 03:31:29;;;;;;;2.25;2.00;;;;;;;13.36;65.78;98643.87;1778944;80;20953;-71
2022/06/22 03:34:05;;;;;;;2.25;1.90;;;;;;;13.42;65.51;98640.51;1780805;80;21071;-70
2022/06/22 03:36:49;;;;;;;3.37;2.00;;;;;;;13.48;65.37;98644.25;1812353;78;20948;-70
2022/06/22 03:39:18;;;;;;;3.52;1.98;;;;;;;13.53;65.17;98638.41;1821631;78;21912;-71
2022/06/22 03:41:52;;;;;;;2.52;2.10;;;;;;;13.59;64.75;98638.98;1821412;78;21435;-70
2022/06/22 03:44:25;;;;;;;3.47;2.25;;;;;;;13.62;64.77;98640.78;1821757;78;21004;-71
2022/06/22 03:46:55;;;;;;;4.80;2.20;;;;;;;13.64;64.80;98637.44;1821474;78;20952;-71
2022/06/22 03:49:38;;;;;;;5.05;2.50;;;;;;;13.66;64.61;98641.23;1821732;78;21035;-71
2022/06/22 03:52:31;;;;;;;6.03;2.25;;;;;;;13.67;64.77;98649.00;1812565;78;22018;-71
2022/06/22 03:55:11;;;;;;;4.00;2.30;;;;;;;13.69;64.64;98643.50;1780850;80;21011;-71
2022/06/22 03:57:40;;;;;;;2.62;2.10;;;;;;;13.65;64.49;98640.91;1777532;80;21039;-71
2022/06/22 04:00:09;;;;;;;2.70;2.27;;;;;;;13.63;64.48;98637.13;1781758;80;21065;-70
2022/06/22 04:02:36;;;;;;;3.55;2.40;;;;;;;13.65;64.62;98636.94;1789167;80;20976;-71
2022/06/22 04:05:03;;;;;;;5.47;2.27;;;;;;;13.68;64.71;98625.95;1789175;80;21983;-72
2022/06/22 04:07:37;;;;;;;4.37;2.40;;;;;;;13.72;64.81;98628.56;1781906;80;21084;-71
2022/06/22 04:10:05;;;;;;;5.47;2.62;;;;;;;13.77;65.02;98625.34;1783682;80;27129;-71
2022/06/22 04:12:35;;;;;;;3.40;2.25;;;;;;;13.79;65.25;98628.13;1756302;80;20965;-71
2022/06/22 04:15:43;;;;;;;7.12;2.10;;;;;;;13.82;65.15;98629.61;1780225;80;20948;-71
2022/06/22 04:18:20;;;;;;;4.42;2.50;;;;;;;13.83;65.04;98626.77;1780120;80;21910;-71
2022/06/22 04:20:56;;;;;;;6.95;2.35;;;;;;;13.81;64.86;98627.97;1780534;80;21479;-71
2022/06/22 04:23:45;;;;;;;4.03;2.35;;;;;;;13.79;64.94;98623.32;1780853;80;21411;-71
2022/06/22 04:26:32;;;;;;;3.12;2.10;;;;;;;13.81;64.98;98624.81;1780367;80;21044;-71
2022/06/22 04:29:02;;;;;;;3.15;2.15;;;;;;;13.82;64.99;98621.65;1780939;80;20989;-71
2022/06/22 04:31:35;;;;;;;3.95;2.20;;;;;;;13.83;65.03;98620.64;1780541;80;22578;-71
2022/06/22 04:34:10;;;;;;;3.08;1.90;;;;;;;13.85;65.05;98618.61;1756724;80;20949;-71
2022/06/22 04:36:43;;;;;;;;;;;;;;;13.87;64.81;98617.92;1783097;79;21039;-71
2022/06/22 04:39:18;;;;;;;3.12;2.02;;;;;;;13.88;64.78;98612.92;1780736;80;21008;-71
2022/06/22 04:41:45;;;;;;;3.22;2.20;;;;;;;13.91;64.85;98609.92;1778196;80;20990;-71
2022/06/22 04:44:20;;;;;;;5.20;2.30;;;;;;;13.99;64.76;98611.97;1780527;80;21784;-71
2022/06/22 04:46:55;;;;;;;3.47;2.33;;;;;;;14.06;64.67;98609.36;1780346;80;21456;-71
2022/06/22 04:49:35;;;;;;;4.92;2.20;;;;;;;14.16;64.78;98606.41;1780555;80;21320;-71
2022/06/22 04:52:21;;;;;;;6.87;2.20;;;;;;;14.24;64.50;98599.16;1780602;80;20953;-71
2022/06/22 04:54:51;;;;;;;3.90;2.12;;;;;;;14.33;64.10;98603.84;1780708;80;21003;-71
2022/06/22 04:57:36;;;;;;;5.25;2.05;;;;;;;14.42;63.98;98607.20;1780438;80;21817;-71
2022/06/22 05:00:17;;;;;;;4.53;2.08;;;;;;;14.46;63.65;98602.66;1780968;78;20994;-71
2022/06/22 05:02:45;;;;;;;2.75;2.08;;;;;;;14.55;63.61;98604.19;1770804;81;20941;-71
2022/06/22 05:05:33;;;;;;;5.12;2.25;;;;;;;14.59;63.17;98603.31;1770637;81;20953;-71
2022/06/22 05:08:21;;;;;;;3.90;2.40;;;;;;;14.62;63.20;98599.45;1770767;81;20997;-71
2022/06/22 05:11:03;;;;;;;5.30;2.40;;;;;;;14.69;63.42;98599.01;1771026;81;22521;-71
2022/06/22 05:13:36;;;;;;;3.17;2.10;;;;;;;14.77;63.73;98609.50;1770620;81;21451;-71
2022/06/22 05:16:04;;;;;;;4.22;2.10;;;;;;;14.81;63.50;98610.75;1770758;80;20949;-71
2022/06/22 05:18:36;;;;;;;3.60;2.00;;;;;;;14.78;63.19;98610.64;1779657;78;20940;-71
2022/06/22 05:21:40;;;;;;;2.77;1.82;;;;;;;14.76;63.28;98604.67;1821765;78;21462;-71
2022/06/22 05:24:23;;;;;;;4.05;1.80;;;;;;;14.81;63.31;98600.13;1813932;78;22243;-70
2022/06/22 05:26:50;;;;;;;5.00;2.30;;;;;;;14.85;62.93;98601.37;1822294;78;20941;-71
2022/06/22 05:29:21;;;;;;;7.62;2.17;;;;;;;14.87;62.93;98604.17;1821372;78;20932;-71
2022/06/22 05:31:54;;;;;;;5.08;1.77;;;;;;;14.87;62.90;98605.50;1814766;78;21043;-71
2022/06/22 05:34:32;;;;;;;5.12;1.80;;;;;;;14.83;63.03;98600.75;1756569;80;20981;-70
2022/06/22 05:37:13;;;;;;;3.67;1.80;;;;;;;14.74;63.24;98600.06;1753687;80;21800;-70
2022/06/22 05:39:39;;;;;;;5.03;2.00;;;;;;;14.71;63.99;98599.63;1779929;80;20972;-70
2022/06/22 05:42:06;;;;;;;5.30;1.80;;;;;;;14.68;64.53;98595.53;1780933;80;20944;-70
2022/06/22 05:44:33;;;;;;;4.22;2.12;;;;;;;14.62;64.70;98597.61;1780626;80;21455;-70
2022/06/22 05:47:00;;;;;;;4.25;2.30;;;;;;;14.58;65.45;98597.18;1780283;80;21511;-70
2022/06/22 05:49:46;;;;;;;5.72;1.90;;;;;;;14.55;65.90;98590.08;1777604;80;22239;-70
2022/06/22 05:52:24;;;;;;;3.90;1.80;;;;;;;14.56;66.09;98594.38;1778437;79;21325;-70
2022/06/22 05:54:58;;;;;;;3.00;1.50;;;;;;;14.54;66.67;98591.91;1777900;80;20980;-70
2022/06/22 05:57:52;;;;;;;3.55;2.08;;;;;;;14.68;67.12;98596.03;1777226;80;21009;-70
2022/06/22 06:00:23;;;;;;;3.02;1.60;;;;;;;14.82;67.53;98587.97;1778222;80;21495;-70
2022/06/22 06:03:13;;;;;;;4.47;1.85;;;;;;;14.95;67.32;98591.73;1763753;80;21808;-70
2022/06/22 06:05:44;;;;;;;2.85;1.30;;;;;;;15.03;67.33;98588.93;1735678;82;21055;-70
2022/06/22 06:08:23;;;;;;;1.30;1.00;;;;;;;15.10;67.04;98588.48;1747625;79;20989;-71
2022/06/22 06:10:49;;;;;;;2.75;1.10;;;;;;;15.09;66.36;98591.65;1777950;80;21032;-70
2022/06/22 06:13:30;;;;;;;1.40;1.05;;;;;;;15.07;66.37;98591.53;1777677;80;20961;-70
2022/06/22 06:16:00;;;;;;;2.37;1.12;;;;;;;14.99;66.61;98597.00;1777765;80;21952;-70
2022/06/22 06:18:30;;;;;;;2.12;0.90;;;;;;;14.88;66.53;98593.03;1777523;80;21409;-71
2022/06/22 06:21:06;;;;;;;1.75;0.90;;;;;;;14.82;66.69;98593.28;1777647;80;20972;-70
2022/06/22 06:23:38;;;;;;;2.05;1.00;;;;;;;14.78;67.07;98592.55;1777485;80;20945;-71
2022/06/22 06:29:14;;;;;;;2.33;1.20;;;;;;;14.75;67.65;98604.36;1766102;81;21827;-70
2022/06/22 06:32:19;;;;;;;1.62;0.90;;;;;;;14.63;67.57;98593.94;1767854;80;20989;-70
2022/06/22 06:34:54;;;;;;;2.72;1.32;;;;;;;14.48;67.72;98595.35;1777641;80;20940;-70
2022/06/22 06:37:44;;;;;;;3.35;1.30;;;;;;;14.42;68.36;98591.27;1777469;79;20988;-70
2022/06/22 06:40:18;;;;;;;2.83;1.10;;;;;;;14.42;68.81;98595.25;1777652;80;21514;-70
2022/06/22 06:42:49;;;;;;;2.12;1.00;;;;;;;14.36;68.98;98594.66;1773572;79;21831;-70
2022/06/22 06:45:19;;;;;;;1.62;0.78;;;;;;;14.33;69.30;98595.37;1766112;81;20885;-70
2022/06/22 06:47:50;;;;;;;1.65;0.93;;;;;;;14.35;69.45;98592.52;1766217;80;20949;-70
2022/06/22 06:50:31;;;;;;;1.32;0.70;;;;;;;14.35;69.35;98589.04;1766102;81;21467;-70
2022/06/22 06:53:06;;;;;;;1.40;0.90;;;;;;;14.35;69.47;98595.68;1766437;81;21653;-70
2022/06/22 06:55:44;;;;;;;1.60;0.85;;;;;;;14.35;69.77;98591.19;1766187;81;21904;-70
2022/06/22 06:58:16;;;;;;;3.33;1.20;;;;;;;14.40;69.95;98591.45;1766255;81;20982;-70
2022/06/22 07:00:43;;;;;;;3.52;1.00;;;;;;;14.42;70.03;98589.94;1737770;80;20962;-71
2022/06/22 07:03:29;;;;;;;0.93;0.80;;;;;;;14.40;69.87;98593.30;1771514;79;21445;-71
2022/06/22 07:05:55;;;;;;;1.95;1.00;;;;;;;14.34;69.83;98590.87;1777635;80;21438;-70
2022/06/22 07:08:30;;;;;;;4.47;1.20;;;;;;;14.35;69.97;98591.70;1777511;80;21810;-71
2022/06/22 07:11:36;;;;;;;1.20;0.80;;;;;;;14.33;70.23;98591.89;1777613;80;21034;-71
2022/06/22 07:13:56;;;;;;;1.87;0.90;;;;;;;14.33;70.69;98586.58;1773854;80;20951;-71
2022/06/22 07:16:24;;;;;;;1.52;0.80;;;;;;;14.39;70.78;98581.03;1777421;79;20941;-71
2022/06/22 07:18:55;;;;;;;1.92;0.80;;;;;;;14.44;70.83;98578.61;1777808;80;21483;-72
2022/06/22 07:21:51;;;;;;;1.87;0.85;;;;;;;14.47;70.66;98582.23;1777956;80;21793;-71
2022/06/22 07:24:30;;;;;;;2.02;1.10;;;;;;;14.44;70.66;98590.56;1777490;80;21036;-70
2022/06/22 07:27:21;;;;;;;1.45;0.80;;;;;;;14.49;71.03;98589.53;1777578;80;20945;-71
2022/06/22 07:30:13;;;;;;;1.15;0.90;;;;;;;14.47;70.89;98590.20;1777110;80;21000;-70
2022/06/22 07:32:52;;;;;;;5.30;1.00;;;;;;;14.50;70.94;98600.47;1772799;80;21493;-71
2022/06/22 07:36:06;;;;;;;5.30;1.05;;;;;;;14.54;70.91;98600.39;1777936;80;21815;-70
2022/06/22 07:39:04;;;;;;;1.15;0.90;;;;;;;14.53;71.13;98598.75;1773961;79;20948;-70
2022/06/22 07:41:31;;;;;;;1.95;0.80;;;;;;;14.65;71.20;98603.04;1777312;80;21510;-72
2022/06/22 07:44:04;;;;;;;3.90;0.90;;;;;;;14.72;70.84;98602.09;1777429;80;21566;-71
2022/06/22 07:46:53;;;;;;;1.05;0.70;;;;;;;14.78;70.95;98604.50;1778272;80;20992;-71
2022/06/22 07:49:39;;;;;;;2.08;0.95;;;;;;;14.87;70.74;98602.84;1777645;80;21806;-71
2022/06/22 07:52:10;;;;;;;2.42;0.90;;;;;;;15.01;70.89;98602.42;1777473;80;20921;-72
2022/06/22 07:54:50;;;;;;;1.45;0.90;;;;;;;15.21;70.57;98600.41;1722359;80;21537;-71
2022/06/22 07:57:47;;;;;;;1.85;0.80;;;;;;;15.42;70.39;98602.48;1777592;80;21389;-71
2022/06/22 08:00:17;;;;;;;1.27;0.80;;;;;;;15.70;70.15;98592.32;1777521;80;20933;-71
2022/06/22 08:03:00;;;;;;;1.37;0.70;;;;;;;15.95;69.21;98593.97;1777793;80;22372;-72
2022/06/22 08:05:30;;;;;;;0.55;0.55;;;;;;;16.09;69.03;98598.81;1749157;80;20950;-71
2022/06/22 08:08:22;;;;;;;1.05;0.70;;;;;;;16.16;65.92;98595.67;1777715;79;20980;-71
2022/06/22 08:10:55;;;;;;;1.17;1.07;;;;;;;16.09;66.15;98597.48;1777618;80;21036;-74
2022/06/22 08:13:29;;;;;;;1.92;1.15;;;;;;;16.00;66.00;98596.33;1777999;80;21028;-73
2022/06/22 08:15:59;;;;;;;1.40;0.90;;;;;;;15.93;66.30;98596.84;1747513;80;22450;-71
2022/06/22 08:18:27;;;;;;;3.92;0.88;;;;;;;15.98;66.80;98595.71;1777492;80;20970;-70
2022/06/22 08:20:54;;;;;;;1.20;0.72;;;;;;;16.09;66.81;98598.81;1777542;80;20941;-70
2022/06/22 08:23:24;;;;;;;0.85;0.70;;;;;;;16.21;66.56;98600.72;1747393;80;21049;-70
2022/06/22 08:25:51;;;;;;;1.32;0.60;;;;;;;16.26;65.86;98599.59;1767595;79;21535;-70
2022/06/22 08:28:20;;;;;;;1.20;0.60;;;;;;;16.30;65.27;98604.81;1766401;81;22481;-70
2022/06/22 08:30:49;;;;;;;3.22;0.60;;;;;;;16.31;65.41;98595.82;1766007;81;20946;-70
2022/06/22 08:33:27;;;;;;;0.65;0.60;;;;;;;16.33;64.72;98597.46;1769478;80;20949;-70
2022/06/22 08:36:03;;;;;;;2.27;0.60;;;;;;;16.34;64.89;98602.58;1772919;80;21443;-71
2022/06/22 08:38:47;;;;;;;1.37;0.68;;;;;;;16.47;64.70;98606.59;1777416;80;20992;-70
2022/06/22 08:41:35;;;;;;;2.90;0.60;;;;;;;16.62;64.28;98608.27;1777501;80;22331;-70
2022/06/22 08:44:24;;;;;;;1.07;0.60;;;;;;;16.70;64.23;98606.26;1736208;80;21019;-70
2022/06/22 08:47:15;;;;;;;0.75;0.55;;;;;;;16.81;63.22;98604.31;1777601;80;21052;-71
2022/06/22 08:50:19;;;;;;;0.72;0.50;;;;;;;16.82;61.83;98606.47;1777476;80;21028;-70
2022/06/22 08:53:03;;;;;;;1.02;0.40;;;;;;;16.92;61.84;98608.20;1748487;80;20940;-70
2022/06/22 08:56:02;;;;;;;0.55;0.42;;;;;;;17.11;61.48;98601.22;1776896;80;22479;-70
2022/06/22 08:58:57;;;;;;;0.53;0.53;;;;;;;17.21;61.00;98600.28;1773877;79;21025;-70
2022/06/22 09:01:31;;;;;;;1.57;0.60;;;;;;;17.35;60.56;98602.41;1766152;81;20957;-70
2022/06/22 09:04:10;;;;;;;1.22;0.50;;;;;;;17.43;59.80;98608.34;1766366;81;21060;-70
2022/06/22 09:06:58;;;;;;;1.00;0.40;;;;;;;17.51;59.11;98604.63;1765621;81;21043;-70
2022/06/22 09:09:57;;;;;;;2.20;0.50;;;;;;;17.59;58.38;98601.73;1759417;81;22465;-70
2022/06/22 09:12:36;;;;;;;2.35;0.50;;;;;;;17.66;58.34;98607.89;1767787;81;20961;-71
2022/06/22 09:15:23;;;;;;;0.60;0.30;;;;;;;17.81;57.40;98602.82;1775655;79;20949;-71
2022/06/22 09:18:07;;;;;;;1.75;0.40;;;;;;;17.93;57.06;98608.62;1812679;78;20995;-71
2022/06/22 09:21:01;;;;;;;0.37;0.37;;;;;;;17.99;56.14;98614.45;1812757;78;20984;-70
2022/06/22 09:23:40;;;;;;;1.25;0.50;;;;;;;17.95;55.85;98608.40;1812190;79;23004;-71
2022/06/22 09:26:34;;;;;;;3.83;0.50;;;;;;;17.76;56.27;98615.48;1812614;79;21392;-71
2022/06/22 09:29:22;;;;;;;1.75;0.30;;;;;;;17.71;56.50;98617.95;1812833;79;20965;-71
2022/06/22 09:32:10;;;;;;;1.45;0.23;;;;;;;17.45;55.53;98628.96;1760994;79;21011;-70
2022/06/22 09:34:47;;;;;;;0.95;0.23;;;;;;;17.16;55.30;98643.58;1739196;80;21083;-70
2022/06/22 09:37:44;;;;;;;0.35;0.35;;;;;;;16.97;55.03;98647.58;1777661;80;22545;-70
2022/06/22 09:40:52;;;;;;;2.77;0.40;;;;;;;16.74;55.12;98643.98;1777634;80;21500;-70
2022/06/22 09:43:59;;;;;;;1.80;0.30;;;;;;;16.54;56.22;98647.41;1777965;80;20999;-70
2022/06/22 09:47:02;;;;;;;4.87;0.50;;;;;;;16.37;58.83;98648.80;1777623;80;21001;-70
2022/06/22 09:50:11;;;;;;;1.50;0.20;;;;;;;16.16;60.80;98647.09;1764826;80;21051;-70
2022/06/22 09:52:53;;;;;;;2.83;0.42;;;;;;;16.07;62.34;98644.30;1758030;81;21916;-70
2022/06/22 09:58:48;;;;;;;2.10;0.40;;;;;;;16.14;64.44;98639.83;1758040;81;20996;-70
2022/06/22 10:01:53;;;;;;;2.25;0.40;;;;;;;16.28;65.49;98643.34;1757321;81;20964;-71
2022/06/22 10:04:31;;;;;;;1.77;0.30;;;;;;;16.46;66.09;98638.27;1758059;81;20987;-71
2022/06/22 10:07:23;;;;;;;1.30;0.40;;;;;;;16.70;65.63;98636.92;1752928;81;21837;-71
2022/06/22 10:10:14;;;;;;;1.75;0.40;;;;;;;16.91;65.45;98645.23;1747795;81;20987;-71
2022/06/22 10:13:13;;;;;;;0.95;0.33;;;;;;;17.14;65.25;98646.15;1758833;81;21047;-71
2022/06/22 10:16:07;;;;;;;0.30;0.30;;;;;;;17.37;64.64;98639.03;1758049;81;20997;-71
2022/06/22 10:18:52;;;;;;;1.85;0.40;;;;;;;17.49;63.92;98638.73;1758420;81;20984;-71
2022/06/22 10:21:56;;;;;;;0.75;0.65;;;;;;;17.61;63.79;98640.23;1758049;81;21818;-71
2022/06/22 10:24:35;;;;;;;2.08;0.50;;;;;;;17.77;63.68;98639.00;1733694;81;21441;-71
2022/06/22 10:27:22;;;;;;;2.05;0.50;;;;;;;17.85;63.82;98638.23;1703882;83;21049;-71
2022/06/22 10:30:12;;;;;;;3.05;0.50;;;;;;;17.92;63.77;98642.22;1724766;83;21028;-71
2022/06/22 10:33:35;;;;;;;0.53;0.50;;;;;;;18.06;64.57;98645.16;1724495;83;21061;-71
2022/06/22 10:36:46;;;;;;;0.80;0.50;;;;;;;18.12;62.42;98650.97;1727989;83;21962;-71
2022/06/22 10:39:53;;;;;;;1.42;0.50;;;;;;;18.15;61.59;98653.24;1727439;83;21083;-71
2022/06/22 10:45:43;;;;;;;1.17;0.50;;;;;;;18.38;61.73;98669.27;1749478;80;21613;-71
2022/06/22 10:48:36;;;;;;;0.50;0.50;;;;;;;18.33;62.19;98676.57;1758390;81;20980;-71
2022/06/22 10:51:43;;;;;;;1.55;0.50;;;;;;;18.23;59.79;98692.24;1754774;81;21746;-70
2022/06/22 10:54:44;;;;;;;2.58;0.70;;;;;;;17.87;59.50;98709.64;1754543;81;20984;-70
2022/06/22 10:57:31;;;;;;;3.40;0.70;;;;;;;17.01;61.14;98723.00;1751630;81;20988;-70
2022/06/22 11:00:11;;;;;;;2.92;0.70;;;;;;;16.24;62.79;98713.52;1748690;82;21088;-71
2022/06/22 11:03:27;;;;;;;3.08;0.70;;;;;;;15.93;64.41;98706.52;1748654;82;21008;-70
2022/06/22 11:06:35;;;;;;;2.90;0.85;;;;;;;15.70;65.49;98716.91;1752447;81;21776;-70
2022/06/22 11:09:13;;;;;;;2.65;0.72;;;;;;;15.46;66.82;98714.17;1754487;81;20996;-71
2022/06/22 11:12:18;;;;;;;1.55;0.70;;;;;;;15.64;68.40;98719.04;1754574;81;20900;-71
2022/06/22 11:15:14;;;;;;;1.37;0.70;;;;;;;16.05;70.35;98712.92;1751647;81;21360;-72
2022/06/22 11:18:06;;;;;;;3.08;0.57;;;;;;;16.77;71.04;98707.56;1748619;82;21518;-72
2022/06/22 11:21:00;;;;;;;1.47;0.72;;;;;;;17.46;71.04;98702.67;1748598;82;22463;-72
2022/06/22 11:23:55;;;;;;;1.15;0.60;;;;;;;18.04;69.98;98696.63;1721804;82;21592;-72
2022/06/22 11:33:03;;;;;;;1.25;0.70;;;;;;;18.61;62.47;98686.91;1742597;81;21037;-71
2022/06/22 11:35:58;;;;;;;1.77;0.50;;;;;;;19.00;63.21;98685.86;1747205;81;21949;-72
2022/06/22 11:38:38;;;;;;;0.40;0.40;;;;;;;19.62;62.37;98685.48;1754580;80;20956;-72
2022/06/22 11:41:44;;;;;;;0.85;0.60;;;;;;;19.90;59.79;98676.95;1754972;81;21379;-71
2022/06/22 11:48:25;;;;;;;0.65;0.55;;;;;;;20.08;57.00;98677.47;1754199;81;21036;-72
2022/06/22 11:51:16;;;;;;;0.50;0.40;;;;;;;20.30;56.92;98675.13;1779232;80;21838;-71
2022/06/22 11:54:11;;;;;;;1.05;0.53;;;;;;;20.56;54.56;98672.66;1780264;80;20995;-72
2022/06/22 11:57:00;;;;;;;1.00;0.40;;;;;;;20.57;53.06;98677.80;1780668;80;21423;-72
2022/06/22 11:59:56;;;;;;;0.65;0.30;;;;;;;20.84;55.02;98675.55;1780681;80;20993;-72
2022/06/22 12:02:34;;;;;;;0.47;0.30;;;;;;;21.31;52.67;98680.19;1750103;82;21480;-72
2022/06/22 12:05:29;;;;;;;0.50;0.40;;;;;;;21.26;49.66;98688.11;1781042;78;21781;-72
2022/06/22 12:08:31;;;;;;;3.70;0.40;;;;;;;20.86;49.67;98700.81;1780535;80;21423;-71
2022/06/22 12:11:54;;;;;;;1.02;0.40;;;;;;;20.00;50.34;98714.77;1780364;80;21455;-71
2022/06/22 12:15:05;;;;;;;2.10;0.60;;;;;;;19.34;52.79;98714.02;1780553;80;20984;-71
2022/06/22 12:17:44;;;;;;;2.40;0.50;;;;;;;18.83;54.13;98719.55;1780574;80;21016;-71
2022/06/22 12:20:25;;;;;;;1.30;0.50;;;;;;;18.49;56.39;98707.34;1780594;80;22022;-71
2022/06/22 12:23:19;;;;;;;1.25;0.40;;;;;;;18.29;57.84;98713.61;1778434;78;20989;-71
2022/06/22 12:26:08;;;;;;;1.07;0.30;;;;;;;18.14;58.83;98705.02;1768226;80;20934;-71
2022/06/22 12:29:01;;;;;;;4.03;0.50;;;;;;;18.03;59.70;98702.48;1774829;80;21024;-71
2022/06/22 12:31:38;;;;;;;0.80;0.50;;;;;;;17.90;60.27;98700.38;1774912;80;20949;-71
2022/06/22 12:34:33;;;;;;;1.15;0.45;;;;;;;17.79;61.18;98703.19;1772074;80;21896;-71
2022/06/22 12:37:08;;;;;;;0.65;0.40;;;;;;;17.68;61.45;98699.27;1778766;80;21048;-71
2022/06/22 12:39:41;;;;;;;1.07;0.60;;;;;;;17.61;62.20;98699.79;1778607;78;21333;-71
2022/06/22 12:42:59;;;;;;;1.85;0.60;;;;;;;17.56;62.24;98706.77;1770703;80;21009;-71
2022/06/22 12:45:50;;;;;;;2.02;0.65;;;;;;;17.44;62.07;98711.41;1774834;80;20945;-71
2022/06/22 12:48:31;;;;;;;2.55;0.60;;;;;;;17.38;63.29;98710.91;1774558;80;21817;-71
2022/06/22 12:51:26;;;;;;;1.07;0.50;;;;;;;17.40;63.50;98718.70;1774420;80;20997;-71
2022/06/22 12:54:16;;;;;;;1.72;0.70;;;;;;;17.48;63.36;98721.17;1693852;83;21040;-71
2022/06/22 12:56:54;;;;;;;1.65;0.60;;;;;;;17.46;63.41;98717.86;1693910;83;21618;-71
2022/06/22 12:59:39;;;;;;;2.37;0.60;;;;;;;17.63;63.25;98718.27;1760871;80;20985;-71
2022/06/22 13:02:07;;;;;;;3.35;1.00;;;;;;;17.92;63.56;98711.67;1784083;80;21587;-71
2022/06/22 13:04:36;;;;;;;1.45;0.70;;;;;;;18.29;64.17;98712.78;1785701;80;20926;-72
2022/06/22 13:07:09;;;;;;;1.52;0.70;;;;;;;18.69;63.70;98713.96;1766902;80;21032;-71